createdAt,value
2019-03-19T00:00:39.813Z,12.50
2019-03-19T00:03:05.651Z,12.70
2019-03-19T00:05:31.573Z,12.37
2019-03-19T00:07:57.374Z,11.23
2019-03-19T00:10:23.189Z,11.30
2019-03-19T00:12:49.013Z,11.30
2019-03-19T00:15:14.831Z,10.73
2019-03-19T00:17:40.664Z,12.57
2019-03-19T00:20:13.400Z,9.87
2019-03-19T00:22:39.309Z,9.97
2019-03-19T00:25:05.661Z,11.27
2019-03-19T00:27:31.578Z,11.07
2019-03-19T00:29:57.413Z,11.57
2019-03-19T00:32:23.336Z,12.87
2019-03-19T00:34:49.180Z,12.03
2019-03-19T00:37:15.041Z,11.10
2019-03-19T00:39:40.879Z,12.80
2019-03-19T00:42:06.800Z,12.90
2019-03-19T00:44:32.730Z,13.57
2019-03-19T00:46:58.664Z,10.63
2019-03-19T00:49:24.496Z,12.70
2019-03-19T00:51:50.333Z,11.60
2019-03-19T00:54:16.171Z,11.23
2019-03-19T00:56:42.113Z,11.17
2019-03-19T00:59:08.037Z,11.20
2019-03-19T01:01:33.846Z,10.83
2019-03-19T01:03:59.684Z,12.57
2019-03-19T01:06:25.502Z,11.63
2019-03-19T01:08:51.331Z,11.50
2019-03-19T01:11:17.154Z,10.47
2019-03-19T01:13:42.964Z,11.10
2019-03-19T01:16:08.865Z,11.20
2019-03-19T01:18:34.814Z,10.27
2019-03-19T01:21:00.618Z,10.07
2019-03-19T01:23:26.439Z,10.00
2019-03-19T01:25:55.475Z,8.70
2019-03-19T01:28:20.013Z,9.67
2019-03-19T01:30:45.820Z,8.77
2019-03-19T01:33:11.682Z,7.50
2019-03-19T01:35:37.499Z,6.60
2019-03-19T01:38:03.440Z,6.43
2019-03-19T01:40:29.281Z,6.90
2019-03-19T01:42:55.109Z,7.50
2019-03-19T01:45:21.054Z,6.40
2019-03-19T01:47:46.861Z,6.33
2019-03-19T01:50:13.707Z,6.67
2019-03-19T01:52:39.722Z,6.47
2019-03-19T01:55:08.244Z,6.30
2019-03-19T01:57:34.061Z,6.23
2019-03-19T01:59:59.879Z,6.60
2019-03-19T02:02:25.682Z,7.10
2019-03-19T02:04:51.629Z,5.80
2019-03-19T02:07:17.557Z,6.60
2019-03-19T02:09:43.417Z,6.53
2019-03-19T02:12:09.246Z,6.40
2019-03-19T02:14:35.174Z,6.27
2019-03-19T02:17:01.034Z,6.33
2019-03-19T02:19:26.942Z,7.00
2019-03-19T02:21:52.765Z,6.50
2019-03-19T02:24:18.580Z,6.40
2019-03-19T02:26:44.519Z,5.73
2019-03-19T02:29:10.977Z,6.47
2019-03-19T02:31:36.896Z,6.67
2019-03-19T02:34:02.816Z,5.93
2019-03-19T02:36:28.759Z,5.63
2019-03-19T02:38:54.585Z,6.10
2019-03-19T02:41:20.449Z,5.30
2019-03-19T02:43:46.270Z,6.87
2019-03-19T02:46:12.083Z,7.37
2019-03-19T02:48:38.009Z,6.23
2019-03-19T02:51:03.850Z,6.87
2019-03-19T02:53:29.807Z,6.90
2019-03-19T02:55:55.579Z,6.07
2019-03-19T02:58:21.407Z,7.30
2019-03-19T03:00:47.229Z,7.87
2019-03-19T03:03:13.060Z,7.80
2019-03-19T03:05:39.011Z,5.90
2019-03-19T03:08:04.846Z,6.30
2019-03-19T03:10:30.669Z,5.77
2019-03-19T03:12:56.477Z,5.00
2019-03-19T03:15:22.342Z,5.97
2019-03-19T03:17:48.464Z,6.50
2019-03-19T03:20:15.011Z,6.67
2019-03-19T03:22:40.816Z,7.20
2019-03-19T03:25:08.346Z,6.10
2019-03-19T03:27:34.157Z,7.13
2019-03-19T03:29:59.966Z,6.20
2019-03-19T03:32:26.012Z,6.40
2019-03-19T03:34:52.049Z,6.10
2019-03-19T03:37:17.931Z,5.53
2019-03-19T03:39:43.742Z,6.77
2019-03-19T03:42:09.659Z,6.33
2019-03-19T03:44:35.688Z,5.90
2019-03-19T03:47:01.510Z,5.00
2019-03-19T03:49:27.341Z,5.43
2019-03-19T03:51:53.190Z,5.33
2019-03-19T03:54:19.026Z,5.50
2019-03-19T03:56:44.894Z,5.33
2019-03-19T03:59:10.806Z,5.90
2019-03-19T04:01:36.643Z,6.70
2019-03-19T04:04:02.697Z,7.33
2019-03-19T04:06:28.491Z,6.43
2019-03-19T04:08:54.335Z,7.77
2019-03-19T04:11:20.147Z,8.80
2019-03-19T04:13:45.988Z,7.23
2019-03-19T04:16:11.820Z,8.33
2019-03-19T04:18:37.671Z,7.43
2019-03-19T04:21:03.512Z,7.77
2019-03-19T04:23:29.474Z,7.73
2019-03-19T04:25:55.283Z,9.57
2019-03-19T04:28:21.100Z,7.97
2019-03-19T04:30:47.039Z,9.00
2019-03-19T04:33:12.856Z,7.43
2019-03-19T04:35:38.683Z,8.80
2019-03-19T04:38:04.637Z,7.60
2019-03-19T04:40:30.471Z,9.17
2019-03-19T04:42:56.283Z,8.00
2019-03-19T04:45:22.146Z,7.47
2019-03-19T04:47:47.957Z,7.37
2019-03-19T04:50:14.598Z,8.00
2019-03-19T04:52:40.413Z,9.00
2019-03-19T04:55:08.181Z,7.60
2019-03-19T04:57:33.992Z,7.40
2019-03-19T04:59:59.820Z,6.33
2019-03-19T05:02:25.861Z,7.30
2019-03-19T05:04:51.670Z,8.60
2019-03-19T05:07:17.594Z,8.23
2019-03-19T05:09:43.519Z,8.97
2019-03-19T05:12:09.445Z,7.87
2019-03-19T05:14:35.262Z,7.93
2019-03-19T05:17:01.205Z,8.47
2019-03-19T05:19:27.021Z,7.83
2019-03-19T05:21:53.030Z,7.60
2019-03-19T05:24:18.847Z,9.40
2019-03-19T05:26:44.666Z,8.70
2019-03-19T05:29:10.505Z,8.53
2019-03-19T05:31:36.297Z,11.37
2019-03-19T05:34:02.417Z,11.13
2019-03-19T05:36:28.455Z,13.10
2019-03-19T05:38:54.312Z,11.43
2019-03-19T05:41:20.130Z,11.93
2019-03-19T05:43:45.975Z,10.07
2019-03-19T05:46:11.783Z,10.37
2019-03-19T05:48:37.710Z,10.03
2019-03-19T05:51:03.613Z,11.83
2019-03-19T05:53:29.456Z,10.43
2019-03-19T05:55:55.269Z,10.43
2019-03-19T05:58:21.253Z,9.93
2019-03-19T06:00:47.154Z,9.00
2019-03-19T06:03:12.967Z,9.37
2019-03-19T06:05:38.806Z,9.83
2019-03-19T06:08:04.615Z,9.57
2019-03-19T06:10:30.535Z,10.87
2019-03-19T06:12:56.359Z,9.97
2019-03-19T06:15:22.207Z,10.93
2019-03-19T06:17:48.014Z,10.30
2019-03-19T06:20:17.384Z,11.00
2019-03-19T06:22:43.298Z,9.80
2019-03-19T06:25:10.158Z,11.40
2019-03-19T06:27:35.965Z,11.17
2019-03-19T06:30:03.074Z,11.73
2019-03-19T06:32:28.919Z,12.20
2019-03-19T06:34:54.747Z,14.50
2019-03-19T06:37:20.691Z,12.93
2019-03-19T06:39:46.538Z,14.90
2019-03-19T06:42:12.356Z,14.20
2019-03-19T06:44:38.474Z,13.90
2019-03-19T06:47:04.321Z,16.23
2019-03-19T06:49:30.153Z,17.97
2019-03-19T06:51:56.005Z,19.30
2019-03-19T06:54:21.809Z,18.07
2019-03-19T06:56:47.721Z,21.57
2019-03-19T06:59:13.624Z,20.23
2019-03-19T07:01:39.587Z,21.47
2019-03-19T07:04:05.497Z,20.03
2019-03-19T07:06:31.422Z,17.47
2019-03-19T07:08:57.286Z,18.87
2019-03-19T07:11:23.128Z,17.40
2019-03-19T07:13:48.982Z,18.00
2019-03-19T07:16:14.807Z,20.40
2019-03-19T07:18:40.879Z,17.17
2019-03-19T07:21:06.701Z,20.03
2019-03-19T07:23:32.739Z,17.53
2019-03-19T07:25:58.659Z,17.30
2019-03-19T07:28:24.479Z,18.33
2019-03-19T07:30:50.307Z,16.93
2019-03-19T07:33:16.155Z,15.00
2019-03-19T07:35:42.107Z,15.73
2019-03-19T07:38:08.029Z,17.00
2019-03-19T07:40:33.976Z,17.00
2019-03-19T07:42:59.902Z,16.60
2019-03-19T07:45:25.846Z,17.47
2019-03-19T07:47:51.646Z,16.20
2019-03-19T07:50:18.577Z,15.17
2019-03-19T07:52:44.621Z,12.60
2019-03-19T07:55:10.662Z,15.73
2019-03-19T07:57:36.489Z,14.07
2019-03-19T08:00:06.125Z,15.17
2019-03-19T08:02:32.053Z,14.07
2019-03-19T08:04:57.980Z,15.50
2019-03-19T08:07:23.928Z,14.47
2019-03-19T08:09:49.941Z,14.27
2019-03-19T08:12:15.862Z,15.10
2019-03-19T08:14:41.800Z,15.13
2019-03-19T08:17:07.640Z,15.73
2019-03-19T08:19:33.461Z,16.00
2019-03-19T08:21:59.278Z,16.47
2019-03-19T08:24:25.102Z,16.37
2019-03-19T08:26:50.949Z,15.07
2019-03-19T08:29:16.975Z,15.70
2019-03-19T08:31:42.805Z,13.50
2019-03-19T08:34:08.648Z,14.77
2019-03-19T08:36:34.457Z,15.30
2019-03-19T08:39:00.287Z,17.00
2019-03-19T08:41:26.212Z,16.50
2019-03-19T08:43:52.704Z,16.23
2019-03-19T08:46:18.671Z,16.30
2019-03-19T08:48:44.525Z,17.00
2019-03-19T08:51:10.451Z,15.30
2019-03-19T08:53:36.288Z,11.80
2019-03-19T08:56:02.124Z,11.83
2019-03-19T08:58:28.062Z,10.40
2019-03-19T09:00:53.880Z,10.80
2019-03-19T09:03:19.792Z,8.20
2019-03-19T09:05:45.710Z,8.50
2019-03-19T09:08:11.625Z,8.43
2019-03-19T09:10:37.458Z,5.50
2019-03-19T09:13:03.470Z,5.87
2019-03-19T09:15:29.301Z,7.10
2019-03-19T09:17:55.126Z,6.70
2019-03-19T09:20:21.067Z,5.77
2019-03-19T09:22:47.168Z,4.60
2019-03-19T09:25:13.197Z,4.40
2019-03-19T09:27:39.127Z,4.17
2019-03-19T09:30:11.653Z,3.03
2019-03-19T09:32:37.506Z,3.30
2019-03-19T09:35:03.935Z,3.47
2019-03-19T09:37:33.109Z,2.03
2019-03-19T09:39:58.938Z,3.80
2019-03-19T09:42:24.791Z,3.00
2019-03-19T09:44:58.153Z,2.70
2019-03-19T09:47:18.434Z,2.00
2019-03-19T09:49:44.256Z,3.70
2019-03-19T09:52:10.073Z,3.00
2019-03-19T09:54:35.913Z,2.63
2019-03-19T09:57:01.773Z,3.90
2019-03-19T09:59:27.633Z,3.20
2019-03-19T10:01:53.564Z,2.67
2019-03-19T10:04:19.503Z,3.00
2019-03-19T10:06:47.238Z,3.33
2019-03-19T10:09:13.198Z,2.90
2019-03-19T10:11:39.001Z,2.60
2019-03-19T10:14:04.850Z,3.10
2019-03-19T10:16:30.683Z,2.03
2019-03-19T10:18:56.517Z,2.40
2019-03-19T10:21:22.463Z,3.37
2019-03-19T10:23:48.304Z,2.90
2019-03-19T10:26:14.235Z,2.93
2019-03-19T10:28:40.067Z,4.10
2019-03-19T10:31:05.899Z,3.30
2019-03-19T10:33:31.843Z,3.80
2019-03-19T10:35:57.669Z,2.40
2019-03-19T10:38:23.596Z,3.00
2019-03-19T10:40:49.533Z,2.53
2019-03-19T10:43:15.444Z,4.80
2019-03-19T10:45:41.354Z,2.90
2019-03-19T10:48:07.173Z,1.90
2019-03-19T10:50:33.129Z,2.57
2019-03-19T10:52:59.029Z,2.73
2019-03-19T10:55:24.951Z,2.17
2019-03-19T10:57:50.884Z,2.43
2019-03-19T11:00:23.665Z,3.00
2019-03-19T11:02:49.921Z,2.87
2019-03-19T11:05:16.334Z,3.40
2019-03-19T11:07:42.266Z,2.80
2019-03-19T11:10:10.008Z,2.50
2019-03-19T11:12:35.944Z,2.50
2019-03-19T11:15:03.670Z,2.60
2019-03-19T11:17:29.586Z,2.43
2019-03-19T11:19:55.439Z,2.40
2019-03-19T11:22:21.353Z,2.43
2019-03-19T11:24:47.176Z,1.50
2019-03-19T11:27:13.111Z,1.90
2019-03-19T11:29:39.019Z,2.47
2019-03-19T11:32:04.848Z,2.00
2019-03-19T11:34:30.781Z,2.60
2019-03-19T11:36:57.977Z,1.10
2019-03-19T11:39:24.069Z,1.97
2019-03-19T11:41:49.994Z,1.90
2019-03-19T11:44:15.927Z,1.97
2019-03-19T11:46:41.867Z,2.10
2019-03-19T11:49:07.772Z,2.03
2019-03-19T11:51:33.586Z,1.70
2019-03-19T11:53:59.513Z,1.63
2019-03-19T11:56:25.378Z,2.00
2019-03-19T11:58:51.300Z,1.97
2019-03-19T12:01:17.107Z,1.80
2019-03-19T12:03:43.052Z,1.80
2019-03-19T12:06:08.872Z,3.43
2019-03-19T12:08:34.717Z,1.50
2019-03-19T12:11:00.527Z,1.83
2019-03-19T12:13:26.381Z,1.70
2019-03-19T12:15:52.288Z,1.80
2019-03-19T12:18:18.200Z,1.60
2019-03-19T12:20:44.128Z,1.40
2019-03-19T12:23:09.940Z,1.60
2019-03-19T12:25:35.971Z,1.37
2019-03-19T12:28:01.902Z,1.40
2019-03-19T12:30:27.848Z,1.80
2019-03-19T12:32:53.775Z,1.90
2019-03-19T12:35:19.726Z,1.73
2019-03-19T12:37:45.648Z,2.97
2019-03-19T12:40:13.280Z,1.73
2019-03-19T12:42:39.285Z,1.60
2019-03-19T12:45:08.232Z,1.47
2019-03-19T12:47:34.060Z,1.67
2019-03-19T12:49:59.891Z,1.30
2019-03-19T12:52:25.743Z,1.10
2019-03-19T12:54:51.573Z,1.40
2019-03-19T12:57:17.499Z,1.10
2019-03-19T12:59:43.433Z,1.57
2019-03-19T13:02:09.349Z,1.20
2019-03-19T13:04:35.263Z,1.67
2019-03-19T13:07:01.279Z,1.70
2019-03-19T13:09:27.203Z,1.53
2019-03-19T13:11:53.051Z,1.23
2019-03-19T13:14:18.861Z,1.57
2019-03-19T13:16:44.789Z,1.63
2019-03-19T13:19:10.636Z,1.70
2019-03-19T13:21:36.445Z,1.63
2019-03-19T13:24:02.531Z,1.30
2019-03-19T13:26:28.447Z,1.60
2019-03-19T13:28:54.390Z,1.50
2019-03-19T13:31:20.216Z,1.70
2019-03-19T13:33:46.075Z,1.97
2019-03-19T13:36:12.003Z,1.63
2019-03-19T13:38:37.878Z,1.60
2019-03-19T13:41:03.788Z,2.00
2019-03-19T13:43:29.639Z,1.87
2019-03-19T13:45:55.473Z,1.93
2019-03-19T13:48:21.315Z,1.30
2019-03-19T13:50:47.161Z,1.87
2019-03-19T13:53:12.997Z,1.87
2019-03-19T13:55:38.947Z,1.40
2019-03-19T13:58:04.819Z,1.57
2019-03-19T14:00:30.743Z,1.30
2019-03-19T14:02:59.039Z,1.63
2019-03-19T14:05:24.313Z,1.93
2019-03-19T14:07:50.223Z,1.90
2019-03-19T14:10:17.227Z,1.80
2019-03-19T14:12:43.291Z,1.77
2019-03-19T14:15:11.454Z,1.90
2019-03-19T14:17:37.402Z,2.60
2019-03-19T14:20:09.223Z,1.90
2019-03-19T14:22:35.087Z,4.37
2019-03-19T14:25:00.937Z,2.00
2019-03-19T14:27:26.771Z,1.60
2019-03-19T14:29:52.589Z,1.97
2019-03-19T14:32:18.507Z,1.40
2019-03-19T14:34:44.405Z,2.33
2019-03-19T14:37:12.387Z,1.70
2019-03-19T14:39:38.054Z,2.10
2019-03-19T14:42:03.888Z,1.83
2019-03-19T14:44:29.728Z,1.50
2019-03-19T14:46:55.841Z,1.30
2019-03-19T14:49:21.707Z,1.50
2019-03-19T14:51:47.687Z,2.07
2019-03-19T14:54:13.519Z,1.80
2019-03-19T14:56:39.344Z,1.63
2019-03-19T14:59:05.215Z,1.93
2019-03-19T15:01:31.050Z,1.90
2019-03-19T15:03:56.905Z,2.60
2019-03-19T15:06:22.723Z,1.57
2019-03-19T15:08:48.667Z,2.13
2019-03-19T15:11:14.498Z,1.87
2019-03-19T15:13:40.456Z,1.87
2019-03-19T15:16:06.425Z,1.80
2019-03-19T15:18:32.270Z,1.73
2019-03-19T15:20:58.111Z,1.93
2019-03-19T15:23:23.971Z,1.93
2019-03-19T15:25:49.807Z,2.33
2019-03-19T15:28:15.662Z,1.93
2019-03-19T15:30:41.502Z,1.97
2019-03-19T15:33:07.338Z,2.33
2019-03-19T15:35:33.234Z,2.17
2019-03-19T15:37:59.182Z,2.20
2019-03-19T15:40:25.061Z,3.50
2019-03-19T15:42:50.906Z,1.57
2019-03-19T15:45:24.993Z,2.47
2019-03-19T15:47:50.857Z,2.37
2019-03-19T15:50:16.828Z,2.90
2019-03-19T15:52:42.699Z,3.23
2019-03-19T15:55:09.543Z,1.97
2019-03-19T15:57:35.412Z,1.50
2019-03-19T16:00:01.450Z,2.10
2019-03-19T16:02:27.317Z,1.80
2019-03-19T16:04:53.325Z,1.30
2019-03-19T16:07:19.209Z,2.27
2019-03-19T16:09:45.164Z,1.73
2019-03-19T16:12:11.099Z,1.57
2019-03-19T16:14:36.945Z,1.73
2019-03-19T16:17:02.997Z,2.40
2019-03-19T16:19:28.961Z,2.10
2019-03-19T16:21:54.838Z,2.00
2019-03-19T16:24:20.652Z,3.83
2019-03-19T16:26:47.058Z,3.67
2019-03-19T16:29:13.159Z,1.93
2019-03-19T16:31:39.016Z,4.47
2019-03-19T16:34:04.934Z,2.10
2019-03-19T16:36:30.888Z,1.37
2019-03-19T16:38:56.754Z,1.97
2019-03-19T16:41:22.598Z,1.90
2019-03-19T16:43:48.584Z,1.53
2019-03-19T16:46:14.417Z,1.70
2019-03-19T16:48:40.270Z,2.20
2019-03-19T16:51:08.930Z,2.00
2019-03-19T16:53:34.772Z,2.10
2019-03-19T16:56:00.622Z,2.20
2019-03-19T16:58:26.458Z,1.70
2019-03-19T17:00:52.433Z,2.33
2019-03-19T17:03:18.257Z,1.57
2019-03-19T17:05:44.079Z,1.60
2019-03-19T17:08:09.913Z,2.37
2019-03-19T17:10:35.869Z,2.70
2019-03-19T17:13:01.695Z,2.50
2019-03-19T17:15:27.754Z,4.03
2019-03-19T17:17:53.668Z,2.70
2019-03-19T17:20:19.659Z,4.20
2019-03-19T17:22:45.596Z,12.77
2019-03-19T17:25:18.813Z,6.30
2019-03-19T17:27:44.658Z,3.37
2019-03-19T17:30:13.492Z,3.23
2019-03-19T17:32:39.347Z,2.50
2019-03-19T17:35:05.285Z,2.77
2019-03-19T17:37:31.124Z,1.80
2019-03-19T17:39:56.958Z,1.83
2019-03-19T17:42:22.819Z,2.40
2019-03-19T17:44:48.764Z,2.57
2019-03-19T17:47:14.633Z,2.13
2019-03-19T17:49:40.446Z,2.30
2019-03-19T17:52:06.359Z,1.90
2019-03-19T17:54:32.299Z,2.50
2019-03-19T17:56:58.123Z,2.80
2019-03-19T17:59:24.172Z,3.27
2019-03-19T18:01:50.017Z,2.27
2019-03-19T18:04:15.857Z,2.60
2019-03-19T18:06:43.200Z,3.00
2019-03-19T18:09:09.359Z,1.97
2019-03-19T18:11:35.283Z,2.43
2019-03-19T18:14:01.115Z,3.40
2019-03-19T18:16:27.023Z,5.70
2019-03-19T18:18:52.965Z,5.70
2019-03-19T18:21:18.876Z,6.03
2019-03-19T18:23:44.830Z,7.27
2019-03-19T18:26:10.658Z,3.10
2019-03-19T18:28:36.483Z,3.20
2019-03-19T18:31:02.549Z,2.17
2019-03-19T18:33:28.497Z,4.30
2019-03-19T18:35:56.446Z,4.10
2019-03-19T18:38:22.162Z,7.30
2019-03-19T18:40:48.027Z,3.47
2019-03-19T18:43:13.854Z,2.90
2019-03-19T18:45:39.688Z,4.13
2019-03-19T18:48:05.702Z,6.83
2019-03-19T18:50:31.544Z,14.80
2019-03-19T18:52:57.360Z,15.23
2019-03-19T18:55:23.317Z,13.20
2019-03-19T18:57:49.137Z,15.60
2019-03-19T19:00:17.350Z,10.10
2019-03-19T19:02:49.765Z,10.67
2019-03-19T19:05:12.241Z,10.93
2019-03-19T19:07:38.088Z,11.40
2019-03-19T19:10:07.206Z,9.37
2019-03-19T19:12:33.263Z,12.93
2019-03-19T19:14:59.177Z,9.60
2019-03-19T19:17:25.135Z,10.10
2019-03-19T19:19:50.971Z,5.00
2019-03-19T19:22:16.916Z,4.40
2019-03-19T19:24:42.751Z,4.60
2019-03-19T19:27:08.683Z,5.20
2019-03-19T19:29:34.529Z,5.20
2019-03-19T19:32:00.360Z,5.43
2019-03-19T19:34:26.235Z,6.50
2019-03-19T19:36:52.078Z,7.70
2019-03-19T19:39:18.042Z,6.47
2019-03-19T19:41:43.874Z,8.00
2019-03-19T19:44:09.822Z,8.90
2019-03-19T19:46:35.643Z,11.07
2019-03-19T19:49:01.494Z,8.63
2019-03-19T19:51:27.332Z,9.90
2019-03-19T19:53:53.337Z,10.03
2019-03-19T19:56:19.186Z,9.17
2019-03-19T19:58:45.031Z,8.43
2019-03-19T20:01:10.872Z,6.90
2019-03-19T20:03:36.722Z,6.43
2019-03-19T20:06:02.676Z,6.87
2019-03-19T20:08:28.614Z,8.00
2019-03-19T20:10:54.593Z,7.27
2019-03-19T20:13:20.588Z,7.53
2019-03-19T20:15:46.446Z,6.17
2019-03-19T20:18:12.303Z,7.77
2019-03-19T20:20:38.157Z,8.30
2019-03-19T20:23:04.134Z,7.20
2019-03-19T20:25:30.110Z,7.50
2019-03-19T20:27:56.052Z,8.10
2019-03-19T20:30:23.427Z,8.00
2019-03-19T20:32:49.299Z,7.80
2019-03-19T20:35:15.345Z,6.90
2019-03-19T20:37:41.227Z,8.13
2019-03-19T20:40:12.304Z,5.47
2019-03-19T20:42:38.154Z,6.57
2019-03-19T20:45:07.522Z,4.37
2019-03-19T20:47:33.414Z,5.50
2019-03-19T20:49:59.375Z,4.93
2019-03-19T20:52:25.209Z,3.97
2019-03-19T20:54:51.107Z,5.20
2019-03-19T20:57:17.063Z,5.47
2019-03-19T20:59:42.914Z,8.70
2019-03-19T21:02:08.743Z,6.60
2019-03-19T21:04:34.612Z,5.97
2019-03-19T21:07:00.454Z,3.50
2019-03-19T21:09:26.320Z,4.67
2019-03-19T21:11:53.424Z,6.13
2019-03-19T21:14:19.448Z,5.50
2019-03-19T21:16:45.279Z,5.67
2019-03-19T21:19:11.101Z,5.70
2019-03-19T21:21:37.068Z,5.07
2019-03-19T21:24:03.012Z,5.33
2019-03-19T21:26:28.899Z,3.33
2019-03-19T21:28:54.908Z,3.93
2019-03-19T21:31:20.780Z,4.00
2019-03-19T21:33:51.478Z,4.80
2019-03-19T21:36:15.260Z,4.03
2019-03-19T21:38:41.403Z,3.93
2019-03-19T21:41:07.258Z,4.03
2019-03-19T21:43:33.103Z,4.23
2019-03-19T21:45:58.956Z,4.70
2019-03-19T21:48:24.787Z,3.10
2019-03-19T21:50:50.637Z,3.17
2019-03-19T21:53:16.587Z,5.73
2019-03-19T21:55:42.477Z,10.00
2019-03-19T21:58:08.319Z,8.67
2019-03-19T22:00:34.142Z,7.20
2019-03-19T22:02:59.993Z,7.70
2019-03-19T22:05:25.918Z,6.83
2019-03-19T22:07:51.851Z,4.93
2019-03-19T22:10:18.981Z,5.83
2019-03-19T22:12:45.354Z,4.57
2019-03-19T22:15:13.980Z,4.30
2019-03-19T22:17:40.197Z,4.63
2019-03-19T22:20:06.381Z,4.23
2019-03-19T22:22:32.299Z,4.33
2019-03-19T22:24:58.129Z,4.40
2019-03-19T22:27:24.263Z,4.10
2019-03-19T22:29:50.090Z,4.43
2019-03-19T22:32:15.901Z,3.80
2019-03-19T22:34:42.203Z,4.40
2019-03-19T22:37:08.088Z,3.50
2019-03-19T22:39:34.351Z,2.77
2019-03-19T22:42:00.481Z,3.20
2019-03-19T22:44:26.293Z,3.57
2019-03-19T22:46:52.429Z,3.87
2019-03-19T22:49:18.272Z,4.43
2019-03-19T22:51:44.485Z,4.00
2019-03-19T22:54:10.301Z,3.90
2019-03-19T22:56:36.778Z,3.43
2019-03-19T22:59:02.690Z,5.07
2019-03-19T23:01:28.606Z,3.47
2019-03-19T23:03:54.425Z,4.73
2019-03-19T23:06:20.237Z,5.70
2019-03-19T23:08:46.073Z,4.33
2019-03-19T23:11:11.986Z,3.30
2019-03-19T23:13:37.827Z,3.30
2019-03-19T23:16:04.058Z,3.10
2019-03-19T23:18:29.897Z,3.20
2019-03-19T23:20:55.711Z,2.97
2019-03-19T23:23:21.535Z,3.23
2019-03-19T23:25:47.438Z,3.20
2019-03-19T23:28:13.246Z,7.20
2019-03-19T23:30:39.180Z,8.00
2019-03-19T23:33:05.110Z,7.13
2019-03-19T23:35:31.038Z,6.20
2019-03-19T23:37:56.875Z,7.50
2019-03-19T23:40:22.712Z,7.67
2019-03-19T23:42:48.549Z,8.97
2019-03-19T23:45:14.467Z,5.40
2019-03-19T23:47:40.304Z,4.53
2019-03-19T23:50:16.262Z,6.10
2019-03-19T23:52:42.179Z,5.33
2019-03-19T23:55:08.697Z,4.50
2019-03-19T23:57:34.636Z,3.03
